createdAt,value
2022-12-17T00:00:00.687Z,107.75
2022-12-17T00:02:43.070Z,73.65
2022-12-17T00:05:28.163Z,105.28
2022-12-17T00:08:14.221Z,97.18
2022-12-17T00:10:56.892Z,67.72
2022-12-17T00:13:39.422Z,97.80
2022-12-17T00:16:22.588Z,149.90
2022-12-17T00:19:04.883Z,130.77
2022-12-17T00:21:49.755Z,112.45
2022-12-17T00:24:31.992Z,51.63
2022-12-17T00:27:14.271Z,49.50
2022-12-17T00:29:56.536Z,113.18
2022-12-17T00:32:41.325Z,141.63
2022-12-17T00:35:24.072Z,119.72
2022-12-17T00:38:08.959Z,137.70
2022-12-17T00:40:51.224Z,132.82
2022-12-17T00:43:34.883Z,153.38
2022-12-17T00:46:17.422Z,92.75
2022-12-17T00:49:00.221Z,107.07
2022-12-17T00:51:43.883Z,151.77
2022-12-17T00:54:29.163Z,73.07
2022-12-17T00:57:11.625Z,120.20
2022-12-17T00:59:53.947Z,136.13
2022-12-17T01:02:39.289Z,110.93
2022-12-17T01:05:22.547Z,90.63
2022-12-17T01:08:04.806Z,92.68
2022-12-17T01:10:49.878Z,123.22
2022-12-17T01:13:32.474Z,43.58
2022-12-17T01:16:18.893Z,93.10
2022-12-17T01:19:01.222Z,67.40
2022-12-17T01:21:43.560Z,63.65
2022-12-17T01:24:26.072Z,68.57
2022-12-17T01:27:11.027Z,74.30
2022-12-17T01:29:53.189Z,66.85
2022-12-17T01:32:35.460Z,63.30
2022-12-17T01:35:17.987Z,78.72
2022-12-17T01:38:00.984Z,58.97
2022-12-17T01:40:43.343Z,106.80
2022-12-17T01:43:28.948Z,66.72
2022-12-17T01:46:11.421Z,86.18
2022-12-17T01:48:56.637Z,83.72
2022-12-17T01:51:39.859Z,96.47
2022-12-17T01:54:22.360Z,105.95
2022-12-17T01:57:04.807Z,159.50
2022-12-17T01:59:54.173Z,124.15
2022-12-17T02:05:19.018Z,128.60
2022-12-17T02:08:09.979Z,136.43
2022-12-17T02:10:57.725Z,125.25
2022-12-17T02:13:46.595Z,133.07
2022-12-17T02:16:36.418Z,62.72
2022-12-17T02:19:24.334Z,142.18
2022-12-17T02:22:09.723Z,88.43
2022-12-17T02:24:58.756Z,119.60
2022-12-17T02:27:44.416Z,81.25
2022-12-17T02:30:26.968Z,153.63
2022-12-17T02:33:10.095Z,129.20
2022-12-17T02:35:56.860Z,97.63
2022-12-17T02:38:41.848Z,65.32
2022-12-17T02:41:27.929Z,113.40
2022-12-17T02:44:13.355Z,107.60
2022-12-17T02:46:57.150Z,113.38
2022-12-17T02:49:39.851Z,146.43
2022-12-17T02:52:23.539Z,118.38
2022-12-17T02:55:06.035Z,135.40
2022-12-17T02:57:53.646Z,123.05
2022-12-17T03:00:39.657Z,152.80
2022-12-17T03:03:22.468Z,133.95
2022-12-17T03:06:04.844Z,86.32
2022-12-17T03:08:47.278Z,116.05
2022-12-17T03:11:29.524Z,97.50
2022-12-17T03:14:11.802Z,114.82
2022-12-17T03:16:56.897Z,93.63
2022-12-17T03:19:39.178Z,92.32
2022-12-17T03:22:21.473Z,82.13
2022-12-17T03:25:03.759Z,81.20
2022-12-17T03:27:46.099Z,81.60
2022-12-17T03:30:31.074Z,65.13
2022-12-17T03:33:19.647Z,68.97
2022-12-17T03:36:02.058Z,67.70
2022-12-17T03:38:44.343Z,55.30
2022-12-17T03:41:26.610Z,83.05
2022-12-17T03:44:08.668Z,71.47
2022-12-17T03:46:51.083Z,83.43
2022-12-17T03:49:35.977Z,58.13
2022-12-17T03:52:18.298Z,60.25
2022-12-17T03:55:00.400Z,97.72
2022-12-17T03:57:42.679Z,73.70
2022-12-17T04:00:26.505Z,62.90
2022-12-17T04:03:09.038Z,52.72
2022-12-17T04:05:54.380Z,33.60
2022-12-17T04:08:36.728Z,38.75
2022-12-17T04:11:19.116Z,67.13
2022-12-17T04:14:01.611Z,51.15
2022-12-17T04:16:49.432Z,54.42
2022-12-17T04:19:31.803Z,45.38
2022-12-17T04:22:16.918Z,57.45
2022-12-17T04:24:59.218Z,53.20
2022-12-17T04:27:41.579Z,33.70
2022-12-17T04:30:24.934Z,65.00
2022-12-17T04:33:07.263Z,61.40
2022-12-17T04:35:49.530Z,49.67
2022-12-17T04:38:34.508Z,72.82
2022-12-17T04:41:16.841Z,58.60
2022-12-17T04:44:02.955Z,42.83
2022-12-17T04:46:47.059Z,50.65
2022-12-17T04:49:29.461Z,112.28
2022-12-17T04:52:11.891Z,43.65
2022-12-17T04:54:57.117Z,72.80
2022-12-17T04:57:39.462Z,91.13
2022-12-17T05:00:23.296Z,70.35
2022-12-17T05:03:17.504Z,83.85
2022-12-17T05:05:59.815Z,50.90
2022-12-17T05:08:51.012Z,63.33
2022-12-17T05:11:44.310Z,63.70
2022-12-17T05:14:26.589Z,48.85
2022-12-17T05:17:08.940Z,51.53
2022-12-17T05:19:51.244Z,63.13
2022-12-17T05:22:33.617Z,99.72
2022-12-17T05:25:15.896Z,47.88
2022-12-17T05:28:01.511Z,89.82
2022-12-17T05:30:43.792Z,56.65
2022-12-17T05:33:26.124Z,102.45
2022-12-17T05:36:08.415Z,79.43
2022-12-17T05:38:53.426Z,63.55
2022-12-17T05:41:35.776Z,76.63
2022-12-17T05:44:20.980Z,48.17
2022-12-17T05:47:03.305Z,99.25
2022-12-17T05:49:45.587Z,89.20
2022-12-17T05:52:42.616Z,84.85
2022-12-17T05:55:25.237Z,39.63
2022-12-17T05:58:07.547Z,56.58
2022-12-17T06:00:52.458Z,93.20
2022-12-17T06:03:35.111Z,55.90
2022-12-17T06:06:17.867Z,90.22
2022-12-17T06:09:00.186Z,44.72
2022-12-17T06:11:42.611Z,91.45
2022-12-17T06:14:24.946Z,39.50
2022-12-17T06:17:10.598Z,60.80
2022-12-17T06:19:52.876Z,48.10
2022-12-17T06:22:35.240Z,49.00
2022-12-17T06:25:17.528Z,61.15
2022-12-17T06:28:00.111Z,64.30
2022-12-17T06:30:42.398Z,50.33
2022-12-17T06:33:27.455Z,56.10
2022-12-17T06:36:10.920Z,48.47
2022-12-17T06:38:53.236Z,50.53
2022-12-17T06:41:41.411Z,49.72
2022-12-17T06:44:23.735Z,41.88
2022-12-17T06:47:06.132Z,43.58
2022-12-17T06:49:51.148Z,37.95
2022-12-17T06:52:33.399Z,60.97
2022-12-17T06:55:15.701Z,53.85
2022-12-17T06:57:57.966Z,60.13
2022-12-17T07:00:40.304Z,50.83
2022-12-17T07:03:26.401Z,61.10
2022-12-17T07:06:11.351Z,46.15
2022-12-17T07:08:53.640Z,63.15
2022-12-17T07:11:36.953Z,55.85
2022-12-17T07:14:19.320Z,46.25
2022-12-17T07:17:01.445Z,30.42
2022-12-17T07:19:43.682Z,53.90
2022-12-17T07:22:28.536Z,54.58
2022-12-17T07:25:10.838Z,48.80
2022-12-17T07:27:53.178Z,61.38
2022-12-17T07:30:35.452Z,44.95
2022-12-17T07:33:19.307Z,68.60
2022-12-17T07:36:01.671Z,56.92
2022-12-17T07:39:03.034Z,65.47
2022-12-17T07:41:45.311Z,61.97
2022-12-17T07:44:27.554Z,51.05
2022-12-17T07:47:09.860Z,52.30
2022-12-17T07:49:52.171Z,39.13
2022-12-17T07:52:34.503Z,51.60
2022-12-17T07:55:19.818Z,33.72
2022-12-17T07:58:02.133Z,37.03
2022-12-17T08:00:49.094Z,30.13
2022-12-17T08:03:31.818Z,54.25
2022-12-17T08:06:14.253Z,37.97
2022-12-17T08:08:56.532Z,56.15
2022-12-17T08:11:41.531Z,55.63
2022-12-17T08:14:23.848Z,52.42
2022-12-17T08:17:06.237Z,42.85
2022-12-17T08:19:48.636Z,40.55
2022-12-17T08:22:30.910Z,59.00
2022-12-17T08:25:13.240Z,47.08
2022-12-17T08:27:58.149Z,41.47
2022-12-17T08:30:40.678Z,34.15
2022-12-17T08:33:23.014Z,32.28
2022-12-17T08:36:08.642Z,28.13
2022-12-17T08:38:50.902Z,41.15
2022-12-17T08:41:33.193Z,40.72
2022-12-17T08:44:18.059Z,48.65
2022-12-17T08:47:00.371Z,39.47
2022-12-17T08:49:42.703Z,39.50
2022-12-17T08:52:28.024Z,38.90
2022-12-17T08:55:10.377Z,43.50
2022-12-17T08:57:52.660Z,39.17
2022-12-17T09:00:37.603Z,25.90
2022-12-17T09:03:20.084Z,27.10
2022-12-17T09:06:02.548Z,52.20
2022-12-17T09:08:45.031Z,39.33
2022-12-17T09:11:27.370Z,65.63
2022-12-17T09:14:09.658Z,53.40
2022-12-17T09:16:54.686Z,66.10
2022-12-17T09:19:37.015Z,45.30
2022-12-17T09:22:19.290Z,44.05
2022-12-17T09:25:01.638Z,55.72
2022-12-17T09:27:43.985Z,52.88
2022-12-17T09:30:27.564Z,50.05
2022-12-17T09:33:12.583Z,77.93
2022-12-17T09:35:55.303Z,70.70
2022-12-17T09:38:37.599Z,61.70
2022-12-17T09:41:32.326Z,66.55
2022-12-17T09:44:18.719Z,68.10
2022-12-17T09:47:06.822Z,71.20
2022-12-17T09:49:52.960Z,63.47
2022-12-17T09:52:38.544Z,60.00
2022-12-17T09:55:31.003Z,74.35
2022-12-17T09:58:13.562Z,72.13
2022-12-17T10:01:00.736Z,61.08
2022-12-17T10:03:44.748Z,51.40
2022-12-17T10:06:33.676Z,67.28
2022-12-17T10:09:29.695Z,32.88
2022-12-17T10:12:13.098Z,60.83
2022-12-17T10:14:55.368Z,56.60
2022-12-17T10:17:38.443Z,58.33
2022-12-17T10:20:30.444Z,58.05
2022-12-17T10:23:15.317Z,52.10
2022-12-17T10:26:20.507Z,43.88
2022-12-17T10:29:02.772Z,41.78
2022-12-17T10:31:45.924Z,52.00
2022-12-17T10:34:31.216Z,60.97
2022-12-17T10:37:13.678Z,50.42
2022-12-17T10:39:59.381Z,49.90
2022-12-17T10:42:43.121Z,49.10
2022-12-17T10:45:37.025Z,57.90
2022-12-17T10:48:25.652Z,56.92
2022-12-17T10:51:07.957Z,43.92
2022-12-17T10:53:50.275Z,50.13
2022-12-17T10:56:41.281Z,47.42
2022-12-17T10:59:27.363Z,54.17
2022-12-17T11:02:13.168Z,58.55
2022-12-17T11:05:15.429Z,64.25
2022-12-17T11:07:58.495Z,63.60
2022-12-17T11:10:44.538Z,62.58
2022-12-17T11:13:32.846Z,57.53
2022-12-17T11:16:15.978Z,59.37
2022-12-17T11:19:04.283Z,60.10
2022-12-17T11:21:49.242Z,56.75
2022-12-17T11:24:36.631Z,62.80
2022-12-17T11:27:21.953Z,47.08
2022-12-17T11:30:07.101Z,51.03
2022-12-17T11:33:00.160Z,52.22
2022-12-17T11:35:49.529Z,52.85
2022-12-17T11:38:45.228Z,48.65
2022-12-17T11:41:31.544Z,45.08
2022-12-17T11:44:18.543Z,65.53
2022-12-17T11:47:06.448Z,56.47
2022-12-17T11:49:53.467Z,46.45
2022-12-17T11:52:40.174Z,64.43
2022-12-17T11:55:31.714Z,47.83
2022-12-17T11:58:17.762Z,66.75
2022-12-17T12:01:07.505Z,56.20
2022-12-17T12:03:57.877Z,64.25
2022-12-17T12:06:49.023Z,52.65
2022-12-17T12:09:34.816Z,47.38
2022-12-17T12:12:22.993Z,60.53
2022-12-17T12:15:12.569Z,64.07
2022-12-17T12:17:58.943Z,40.17
2022-12-17T12:21:06.191Z,47.28
2022-12-17T12:23:55.958Z,50.55
2022-12-17T12:26:39.263Z,52.53
2022-12-17T12:29:30.916Z,51.35
2022-12-17T12:32:17.473Z,52.50
2022-12-17T12:35:00.655Z,59.42
2022-12-17T12:37:46.299Z,55.13
2022-12-17T12:40:32.165Z,50.22
2022-12-17T12:43:17.875Z,56.95
2022-12-17T12:46:05.832Z,47.40
2022-12-17T12:48:54.806Z,47.25
2022-12-17T12:51:40.056Z,52.25
2022-12-17T12:54:41.287Z,57.05
2022-12-17T12:57:41.861Z,60.35
2022-12-17T13:00:37.784Z,65.20
2022-12-17T13:03:30.460Z,60.58
2022-12-17T13:06:01.859Z,56.60
2022-12-17T13:08:31.721Z,64.25
2022-12-17T13:11:14.502Z,60.65
2022-12-17T13:13:56.222Z,61.40
2022-12-17T13:16:45.431Z,67.78
2022-12-17T13:19:23.741Z,66.80
2022-12-17T13:21:53.683Z,60.67
2022-12-17T13:24:27.878Z,69.28
2022-12-17T13:27:00.384Z,63.75
2022-12-17T13:29:32.318Z,72.47
2022-12-17T13:32:18.815Z,67.43
2022-12-17T13:35:10.316Z,59.20
2022-12-17T13:37:46.004Z,58.97
2022-12-17T13:40:24.972Z,66.78
2022-12-17T13:42:58.252Z,63.88
2022-12-17T13:45:29.874Z,55.40
2022-12-17T13:48:01.111Z,66.78
2022-12-17T13:50:35.613Z,54.38
2022-12-17T13:53:13.452Z,62.53
2022-12-17T13:55:43.629Z,52.33
2022-12-17T13:58:28.011Z,56.58
2022-12-17T14:01:08.257Z,38.60
2022-12-17T14:06:31.085Z,43.13
2022-12-17T14:09:01.523Z,45.88
2022-12-17T14:11:44.083Z,63.75
2022-12-17T14:14:33.512Z,44.00
2022-12-17T14:19:35.787Z,30.63
2022-12-17T14:22:05.786Z,50.83
2022-12-17T14:24:35.976Z,48.85
2022-12-17T14:27:05.965Z,69.63
2022-12-17T14:29:49.128Z,48.75
2022-12-17T14:32:27.160Z,54.88
2022-12-17T14:35:00.679Z,63.67
2022-12-17T14:37:31.858Z,52.80
2022-12-17T14:40:04.991Z,43.65
2022-12-17T14:42:38.433Z,49.92
2022-12-17T14:45:25.387Z,54.70
2022-12-17T14:47:56.696Z,49.95
2022-12-17T14:50:30.449Z,62.05
2022-12-17T14:53:01.846Z,52.95
2022-12-17T14:55:37.581Z,56.38
2022-12-17T14:58:25.560Z,46.50
2022-12-17T15:01:02.442Z,58.45
2022-12-17T15:03:36.224Z,49.42
2022-12-17T15:06:08.225Z,57.35
2022-12-17T15:08:40.077Z,66.93
2022-12-17T15:11:10.599Z,65.15
2022-12-17T15:13:40.659Z,44.50
2022-12-17T15:16:13.733Z,49.42
2022-12-17T15:18:43.608Z,53.08
2022-12-17T15:21:14.860Z,67.63
2022-12-17T15:23:46.709Z,54.00
2022-12-17T15:26:17.564Z,70.10
2022-12-17T15:28:48.672Z,62.85
2022-12-17T15:31:24.978Z,55.47
2022-12-17T15:33:56.669Z,65.20
2022-12-17T15:36:26.900Z,62.83
2022-12-17T15:38:56.839Z,40.63
2022-12-17T15:41:39.400Z,50.25
2022-12-17T15:44:09.271Z,57.67
2022-12-17T15:46:41.845Z,46.70
2022-12-17T15:49:11.775Z,61.50
2022-12-17T15:51:41.619Z,59.45
2022-12-17T15:54:11.548Z,46.00
2022-12-17T15:56:41.429Z,44.88
2022-12-17T15:59:11.376Z,60.80
2022-12-17T16:01:44.485Z,50.10
2022-12-17T16:04:21.543Z,85.60
2022-12-17T16:06:54.516Z,53.17
2022-12-17T16:09:27.173Z,78.25
2022-12-17T16:11:57.551Z,63.55
2022-12-17T16:14:27.547Z,66.05
2022-12-17T16:17:00.114Z,58.42
2022-12-17T16:19:30.042Z,56.33
2022-12-17T16:21:59.921Z,51.40
2022-12-17T16:24:29.801Z,50.25
2022-12-17T16:27:04.341Z,46.63
2022-12-17T16:29:34.739Z,46.60
2022-12-17T16:32:07.784Z,46.55
2022-12-17T16:34:37.729Z,52.67
2022-12-17T16:37:10.660Z,57.95
2022-12-17T16:39:40.603Z,53.47
2022-12-17T16:42:11.601Z,60.72
2022-12-17T16:44:41.569Z,53.10
2022-12-17T16:47:14.120Z,50.15
2022-12-17T16:49:44.104Z,51.30
2022-12-17T16:52:14.011Z,41.60
2022-12-17T16:54:43.916Z,51.30
2022-12-17T16:57:13.740Z,40.75
2022-12-17T16:59:43.696Z,41.00
2022-12-17T17:02:18.661Z,47.28
2022-12-17T17:04:48.742Z,31.92
2022-12-17T17:07:18.800Z,46.35
2022-12-17T17:09:48.677Z,51.80
2022-12-17T17:12:18.557Z,45.90
2022-12-17T17:14:48.421Z,51.97
2022-12-17T17:17:54.550Z,52.28
2022-12-17T17:20:11.897Z,60.38
2022-12-17T17:22:41.874Z,75.82
2022-12-17T17:25:12.243Z,67.22
2022-12-17T17:27:42.138Z,69.53
2022-12-17T17:30:13.733Z,68.60
2022-12-17T17:32:46.306Z,66.22
2022-12-17T17:35:16.531Z,71.35
2022-12-17T17:37:46.461Z,66.68
2022-12-17T17:40:17.033Z,53.88
2022-12-17T17:42:51.536Z,59.15
2022-12-17T17:45:22.866Z,73.82
2022-12-17T17:47:55.344Z,53.17
2022-12-17T17:50:25.235Z,55.38
2022-12-17T17:52:55.094Z,46.78
2022-12-17T17:55:25.058Z,43.85
2022-12-17T17:57:55.958Z,51.25
2022-12-17T18:00:25.890Z,44.13
2022-12-17T18:02:58.481Z,67.70
2022-12-17T18:05:28.564Z,58.42
2022-12-17T18:07:58.434Z,72.95
2022-12-17T18:10:29.200Z,58.88
2022-12-17T18:13:11.453Z,51.45
2022-12-17T18:15:41.390Z,64.47
2022-12-17T18:18:14.769Z,52.22
2022-12-17T18:20:44.880Z,50.22
2022-12-17T18:23:14.688Z,40.63
2022-12-17T18:25:44.547Z,74.15
2022-12-17T18:28:14.463Z,53.03
2022-12-17T18:30:44.407Z,39.60
2022-12-17T18:33:16.908Z,62.45
2022-12-17T18:35:46.800Z,50.85
2022-12-17T18:38:16.630Z,46.45
2022-12-17T18:40:46.832Z,43.83
2022-12-17T18:43:26.119Z,38.30
2022-12-17T18:45:56.124Z,47.25
2022-12-17T18:48:30.287Z,59.40
2022-12-17T18:51:07.442Z,77.53
2022-12-17T18:53:37.317Z,40.45
2022-12-17T18:56:11.081Z,35.72
2022-12-17T18:58:41.217Z,46.45
2022-12-17T19:01:11.183Z,58.92
2022-12-17T19:03:43.812Z,53.53
2022-12-17T19:06:13.901Z,76.38
2022-12-17T19:08:43.930Z,49.28
2022-12-17T19:11:19.799Z,37.55
2022-12-17T19:13:50.187Z,46.45
2022-12-17T19:16:22.198Z,61.78
2022-12-17T19:18:57.403Z,55.15
2022-12-17T19:21:28.068Z,52.03
2022-12-17T19:24:00.494Z,38.97
2022-12-17T19:26:30.670Z,40.97
2022-12-17T19:29:02.143Z,61.72
2022-12-17T19:31:34.302Z,56.28
2022-12-17T19:34:08.247Z,47.85
2022-12-17T19:36:39.182Z,49.40
2022-12-17T19:39:10.792Z,50.30
2022-12-17T19:41:40.715Z,63.47
2022-12-17T19:44:13.620Z,51.10
2022-12-17T19:46:43.767Z,49.50
2022-12-17T19:49:17.465Z,47.67
2022-12-17T19:51:47.691Z,48.92
2022-12-17T19:54:17.904Z,46.45
2022-12-17T19:56:47.900Z,44.30
2022-12-17T19:59:17.851Z,76.00
2022-12-17T20:01:49.322Z,52.95
2022-12-17T20:04:21.982Z,34.53
2022-12-17T20:06:51.934Z,48.45
2022-12-17T20:09:21.731Z,59.63
2022-12-17T20:11:51.587Z,51.05
2022-12-17T20:14:23.833Z,54.83
2022-12-17T20:16:55.946Z,34.17
2022-12-17T20:19:31.217Z,41.83
2022-12-17T20:22:01.985Z,46.70
2022-12-17T20:24:32.388Z,49.85
2022-12-17T20:27:02.528Z,41.58
2022-12-17T20:29:32.748Z,37.42
2022-12-17T20:32:04.085Z,46.38
2022-12-17T20:34:36.700Z,49.10
2022-12-17T20:37:06.653Z,36.85
2022-12-17T20:39:36.602Z,38.70
2022-12-17T20:42:07.593Z,41.92
2022-12-17T20:44:37.637Z,42.55
2022-12-17T20:47:07.674Z,39.78
2022-12-17T20:49:40.147Z,38.40
2022-12-17T20:52:10.135Z,46.97
2022-12-17T20:54:40.119Z,49.28
2022-12-17T20:57:10.007Z,44.85
2022-12-17T20:59:39.912Z,34.70
2022-12-17T21:02:10.036Z,39.22
2022-12-17T21:04:42.626Z,49.63
2022-12-17T21:07:12.577Z,52.25
2022-12-17T21:09:42.364Z,228.02
2022-12-17T21:12:13.645Z,71.68
2022-12-17T21:14:43.622Z,53.13
2022-12-17T21:17:14.838Z,40.20
2022-12-17T21:19:47.456Z,36.22
2022-12-17T21:22:17.533Z,30.83
2022-12-17T21:24:47.364Z,45.30
2022-12-17T21:27:17.335Z,35.08
2022-12-17T21:29:47.272Z,36.45
2022-12-17T21:32:17.137Z,54.20
2022-12-17T21:34:49.660Z,44.15
2022-12-17T21:37:19.691Z,39.10
2022-12-17T21:39:49.638Z,41.65
2022-12-17T21:42:31.878Z,49.28
2022-12-17T21:45:01.804Z,41.05
2022-12-17T21:47:31.850Z,41.83
2022-12-17T21:50:04.345Z,38.72
2022-12-17T21:52:34.249Z,46.95
2022-12-17T21:55:04.126Z,44.33
2022-12-17T21:57:33.913Z,39.40
2022-12-17T22:00:03.819Z,35.95
2022-12-17T22:02:34.313Z,38.13
2022-12-17T22:05:08.243Z,32.72
2022-12-17T22:07:42.414Z,32.33
2022-12-17T22:10:43.356Z,32.15
2022-12-17T22:13:20.317Z,34.88
2022-12-17T22:15:50.355Z,40.58
2022-12-17T22:18:20.269Z,40.65
2022-12-17T22:21:02.563Z,30.33
2022-12-17T22:23:33.036Z,30.30
2022-12-17T22:26:03.230Z,34.05
2022-12-17T22:28:33.071Z,32.40
2022-12-17T22:31:19.659Z,37.38
2022-12-17T22:34:18.820Z,35.70
2022-12-17T22:38:56.733Z,31.88
2022-12-17T22:44:30.962Z,34.30
2022-12-17T22:44:35.709Z,39.42
2022-12-17T22:45:26.620Z,38.72
2022-12-17T22:47:56.553Z,63.17
2022-12-17T22:50:28.669Z,50.05
2022-12-17T22:53:08.275Z,37.42
2022-12-17T22:55:38.584Z,125.95
2022-12-17T22:58:08.889Z,482.25
2022-12-17T23:00:39.271Z,883.95
2022-12-17T23:03:09.504Z,833.40
2022-12-17T23:05:39.595Z,580.65
2022-12-17T23:08:15.010Z,124.40
2022-12-17T23:10:45.075Z,41.38
2022-12-17T23:13:14.983Z,38.20
2022-12-17T23:15:44.863Z,57.40
2022-12-17T23:18:15.747Z,41.40
2022-12-17T23:20:45.567Z,56.63
2022-12-17T23:23:18.067Z,46.58
2022-12-17T23:25:47.966Z,53.17
2022-12-17T23:28:17.935Z,46.08
2022-12-17T23:30:47.754Z,45.22
2022-12-17T23:33:17.627Z,41.80
2022-12-17T23:35:47.562Z,39.75
2022-12-17T23:38:19.984Z,49.30
2022-12-17T23:40:49.904Z,56.80
2022-12-17T23:43:19.689Z,45.80
2022-12-17T23:45:49.472Z,52.85
2022-12-17T23:48:19.378Z,39.95
2022-12-17T23:50:49.194Z,38.72
2022-12-17T23:53:21.631Z,51.28
2022-12-17T23:55:52.021Z,50.08
2022-12-17T23:58:22.658Z,45.15
